createdAt,value
2019-03-04T00:03:37.827Z,7.40
2019-03-04T00:08:44.936Z,9.50
2019-03-04T00:13:51.897Z,6.63
2019-03-04T00:18:58.860Z,8.60
2019-03-04T00:24:05.827Z,8.00
2019-03-04T00:29:12.782Z,8.87
2019-03-04T00:34:19.743Z,6.93
2019-03-04T00:39:26.712Z,6.63
2019-03-04T00:44:33.686Z,8.00
2019-03-04T00:49:40.611Z,8.13
2019-03-04T00:54:49.402Z,6.73
2019-03-04T00:59:56.373Z,7.73
2019-03-04T01:05:03.569Z,7.30
2019-03-04T01:10:11.390Z,6.47
2019-03-04T01:15:19.626Z,6.97
2019-03-04T01:20:26.580Z,5.17
2019-03-04T01:25:34.582Z,8.53
2019-03-04T01:30:41.691Z,7.60
2019-03-04T01:35:48.604Z,8.10
2019-03-04T01:40:55.529Z,7.83
2019-03-04T01:46:02.630Z,8.00
2019-03-04T01:51:09.630Z,9.37
2019-03-04T01:56:16.647Z,7.67
2019-03-04T02:01:23.679Z,8.10
2019-03-04T02:06:30.608Z,8.93
2019-03-04T02:11:37.586Z,9.80
2019-03-04T02:16:44.561Z,6.83
2019-03-04T02:21:51.492Z,9.10
2019-03-04T02:26:59.622Z,8.27
2019-03-04T02:32:06.657Z,7.87
2019-03-04T02:37:16.600Z,8.23
2019-03-04T02:42:23.623Z,6.97
2019-03-04T02:47:30.641Z,5.47
2019-03-04T02:52:37.634Z,6.33
2019-03-04T02:57:46.089Z,5.97
2019-03-04T03:02:53.206Z,12.03
2019-03-04T03:08:00.135Z,7.53
2019-03-04T03:13:07.191Z,5.43
2019-03-04T03:18:14.365Z,4.70
2019-03-04T03:23:21.283Z,7.23
2019-03-04T03:28:28.241Z,6.63
2019-03-04T03:33:36.234Z,8.13
2019-03-04T03:38:43.181Z,9.73
2019-03-04T03:43:50.129Z,8.73
2019-03-04T03:48:58.035Z,5.43
2019-03-04T03:54:05.139Z,7.93
2019-03-04T03:59:12.126Z,6.97
2019-03-04T04:04:19.020Z,7.00
2019-03-04T04:09:26.052Z,7.23
2019-03-04T04:14:32.996Z,5.77
2019-03-04T04:19:39.930Z,6.23
2019-03-04T04:24:47.003Z,7.60
2019-03-04T04:29:54.027Z,6.57
2019-03-04T04:35:00.945Z,5.57
2019-03-04T04:40:08.118Z,4.00
2019-03-04T04:45:15.425Z,6.70
2019-03-04T04:50:22.554Z,6.50
2019-03-04T04:55:29.597Z,4.87
2019-03-04T05:00:36.647Z,5.53
2019-03-04T05:05:43.638Z,6.63
2019-03-04T05:10:50.569Z,5.50
2019-03-04T05:15:57.534Z,5.20
2019-03-04T05:21:04.485Z,6.57
2019-03-04T05:26:11.720Z,6.37
2019-03-04T05:31:18.658Z,3.70
2019-03-04T05:36:25.657Z,5.50
2019-03-04T05:41:33.581Z,4.30
2019-03-04T05:46:41.638Z,3.93
2019-03-04T05:51:48.634Z,6.27
2019-03-04T05:56:55.572Z,2.77
2019-03-04T06:02:08.387Z,5.47
2019-03-04T06:07:32.756Z,4.60
2019-03-04T06:12:39.909Z,3.47
2019-03-04T06:17:46.911Z,3.70
2019-03-04T06:22:53.952Z,4.57
2019-03-04T06:28:00.905Z,4.13
2019-03-04T06:33:07.849Z,3.00
2019-03-04T06:38:14.888Z,3.97
2019-03-04T06:43:21.832Z,4.17
2019-03-04T06:48:28.793Z,4.63
2019-03-04T06:54:09.061Z,6.60
2019-03-04T07:00:00.538Z,3.83
2019-03-04T07:05:44.369Z,2.60
2019-03-04T07:10:51.460Z,2.53
2019-03-04T07:15:58.537Z,3.63
2019-03-04T07:21:05.550Z,3.00
2019-03-04T07:26:12.557Z,4.80
2019-03-04T07:31:19.590Z,4.07
2019-03-04T07:36:26.723Z,5.07
2019-03-04T07:41:39.136Z,3.63
2019-03-04T07:46:46.066Z,3.80
2019-03-04T07:51:53.259Z,6.60
2019-03-04T07:57:00.268Z,3.23
2019-03-04T08:02:07.293Z,3.13
2019-03-04T08:07:42.666Z,5.63
2019-03-04T08:13:05.038Z,4.47
2019-03-04T08:18:11.967Z,3.10
2019-03-04T08:23:18.982Z,3.10
2019-03-04T08:28:25.984Z,4.50
2019-03-04T08:33:34.069Z,3.37
2019-03-04T08:38:41.980Z,3.90
2019-03-04T08:43:48.918Z,4.37
2019-03-04T08:48:55.969Z,4.83
2019-03-04T08:54:05.715Z,2.43
2019-03-04T08:59:12.651Z,8.20
2019-03-04T09:04:19.569Z,3.57
2019-03-04T09:09:26.964Z,3.50
2019-03-04T09:14:33.882Z,5.30
2019-03-04T09:19:40.815Z,8.30
2019-03-04T09:24:47.748Z,12.33
2019-03-04T09:29:54.654Z,8.40
2019-03-04T09:35:01.703Z,3.87
2019-03-04T09:40:11.087Z,5.53
2019-03-04T09:45:18.566Z,13.23
2019-03-04T09:50:25.769Z,10.40
2019-03-04T09:55:32.806Z,7.53
2019-03-04T10:01:36.084Z,3.57
2019-03-04T10:07:07.306Z,5.17
2019-03-04T10:12:29.537Z,4.87
2019-03-04T10:17:51.317Z,3.97
2019-03-04T10:23:15.891Z,11.63
2019-03-04T10:29:06.576Z,9.27
2019-03-04T10:35:04.624Z,8.17
2019-03-04T10:40:51.956Z,4.37
2019-03-04T10:46:20.343Z,8.20
2019-03-04T10:51:27.364Z,5.30
2019-03-04T10:56:34.391Z,4.17
2019-03-04T11:01:41.301Z,4.17
2019-03-04T11:06:48.327Z,2.00
2019-03-04T11:11:55.395Z,1.10
2019-03-04T11:17:02.340Z,0.77
2019-03-04T11:22:09.749Z,1.93
2019-03-04T11:27:16.818Z,7.00
2019-03-04T11:32:23.757Z,3.80
2019-03-04T11:37:30.695Z,1.23
2019-03-04T11:42:37.712Z,2.10
2019-03-04T11:47:44.732Z,1.40
2019-03-04T11:52:52.671Z,1.00
2019-03-04T11:57:59.699Z,1.50
2019-03-04T12:03:06.683Z,2.83
2019-03-04T12:08:13.683Z,1.70
2019-03-04T12:13:20.671Z,1.77
2019-03-04T12:18:27.742Z,3.13
2019-03-04T12:23:34.730Z,2.87
2019-03-04T12:28:47.600Z,1.33
2019-03-04T12:33:50.395Z,2.20
2019-03-04T12:38:57.307Z,3.83
2019-03-04T12:44:04.440Z,2.83
2019-03-04T12:49:11.371Z,1.83
2019-03-04T12:54:18.292Z,2.47
2019-03-04T12:59:25.284Z,1.73
2019-03-04T13:04:32.208Z,3.60
2019-03-04T13:09:39.115Z,5.97
2019-03-04T13:14:46.091Z,3.10
2019-03-04T13:19:53.017Z,2.83
2019-03-04T13:24:59.959Z,2.93
2019-03-04T13:30:08.694Z,4.17
2019-03-04T13:35:24.493Z,3.73
2019-03-04T13:40:26.570Z,11.87
2019-03-04T13:45:33.592Z,4.17
2019-03-04T13:50:40.866Z,3.73
2019-03-04T13:55:47.967Z,5.57
2019-03-04T14:00:54.915Z,4.40
2019-03-04T14:06:01.822Z,3.50
2019-03-04T14:11:09.827Z,4.57
2019-03-04T14:16:17.613Z,4.47
2019-03-04T14:21:24.603Z,3.77
2019-03-04T14:26:31.604Z,3.47
2019-03-04T14:31:38.672Z,1.53
2019-03-04T14:36:45.588Z,3.23
2019-03-04T14:41:53.654Z,3.93
2019-03-04T14:47:00.617Z,4.93
2019-03-04T14:52:07.740Z,4.47
2019-03-04T14:57:14.919Z,1.23
2019-03-04T15:02:21.879Z,3.33
2019-03-04T15:07:28.800Z,3.43
2019-03-04T15:12:35.799Z,3.50
2019-03-04T15:17:42.803Z,4.10
2019-03-04T15:22:51.070Z,3.17
2019-03-04T15:28:09.702Z,2.83
2019-03-04T15:33:18.401Z,2.67
2019-03-04T15:38:26.378Z,0.93
2019-03-04T15:43:33.331Z,2.17
2019-03-04T15:48:40.337Z,2.70
2019-03-04T15:53:47.317Z,7.33
2019-03-04T15:58:54.273Z,2.50
2019-03-04T16:04:01.330Z,1.77
2019-03-04T16:09:14.968Z,2.27
2019-03-04T16:14:21.980Z,3.13
2019-03-04T16:19:28.954Z,2.77
2019-03-04T16:24:35.944Z,1.40
2019-03-04T16:29:42.870Z,2.40
2019-03-04T16:34:49.883Z,3.90
2019-03-04T16:39:57.148Z,2.13
2019-03-04T16:45:04.642Z,1.83
2019-03-04T16:50:13.076Z,4.67
2019-03-04T16:55:20.260Z,3.70
2019-03-04T17:00:28.156Z,5.13
2019-03-04T17:05:35.889Z,2.60
2019-03-04T17:10:42.836Z,3.47
2019-03-04T17:15:49.985Z,4.30
2019-03-04T17:20:57.304Z,3.60
2019-03-04T17:26:04.417Z,4.73
2019-03-04T17:31:11.350Z,4.37
2019-03-04T17:36:18.304Z,4.80
2019-03-04T17:41:31.053Z,3.43
2019-03-04T17:46:38.142Z,5.07
2019-03-04T17:51:46.848Z,3.80
2019-03-04T17:57:00.161Z,3.90
2019-03-04T18:02:09.639Z,5.23
2019-03-04T18:07:16.691Z,3.60
2019-03-04T18:12:23.677Z,3.47
2019-03-04T18:17:31.073Z,3.77
2019-03-04T18:22:38.245Z,2.50
2019-03-04T18:27:50.085Z,3.87
2019-03-04T18:33:52.719Z,4.57
2019-03-04T18:46:08.086Z,2.50
2019-03-04T18:51:15.130Z,2.47
2019-03-04T18:56:22.488Z,3.17
2019-03-04T19:01:32.254Z,2.53
2019-03-04T19:06:39.349Z,2.17
2019-03-04T19:11:46.559Z,2.40
2019-03-04T19:16:53.730Z,2.20
2019-03-04T19:22:00.734Z,3.27
2019-03-04T19:27:07.701Z,4.20
2019-03-04T19:32:14.643Z,3.23
2019-03-04T19:37:21.567Z,3.37
2019-03-04T19:42:28.591Z,3.73
2019-03-04T19:47:36.985Z,5.20
2019-03-04T19:52:44.179Z,5.87
2019-03-04T19:57:51.266Z,4.30
2019-03-04T20:03:10.743Z,4.00
2019-03-04T20:08:18.054Z,6.67
2019-03-04T20:13:26.398Z,4.43
2019-03-04T20:18:33.298Z,8.87
2019-03-04T20:23:40.418Z,7.93
2019-03-04T20:28:47.343Z,8.13
2019-03-04T20:33:57.609Z,5.40
2019-03-04T20:39:06.006Z,7.33
2019-03-04T20:44:16.075Z,6.17
2019-03-04T20:49:23.262Z,8.20
2019-03-04T20:54:30.331Z,10.83
2019-03-04T20:59:37.337Z,11.63
2019-03-04T21:04:44.259Z,6.43
2019-03-04T21:09:51.271Z,7.33
2019-03-04T21:14:58.189Z,8.87
2019-03-04T21:20:06.489Z,10.27
2019-03-04T21:26:17.735Z,8.63
2019-03-04T21:31:44.048Z,6.53
2019-03-04T21:36:55.219Z,7.47
2019-03-04T21:42:09.389Z,5.87
2019-03-04T21:47:26.995Z,6.37
2019-03-04T21:52:43.430Z,6.70
2019-03-04T21:57:55.625Z,10.30
2019-03-04T22:03:18.034Z,8.63
2019-03-04T22:08:25.315Z,8.60
2019-03-04T22:13:32.552Z,8.97
2019-03-04T22:18:39.519Z,7.37
2019-03-04T22:23:46.520Z,8.17
2019-03-04T22:28:53.532Z,7.40
2019-03-04T22:34:00.603Z,5.53
2019-03-04T22:39:08.086Z,8.53
2019-03-04T22:44:16.640Z,6.13
2019-03-04T22:49:23.645Z,6.37
2019-03-04T22:54:30.660Z,8.07
2019-03-04T22:59:38.128Z,7.23
2019-03-04T23:05:06.412Z,5.97
2019-03-04T23:10:49.007Z,8.30
2019-03-04T23:15:58.759Z,9.23
2019-03-04T23:21:06.613Z,7.87
2019-03-04T23:26:13.667Z,5.70
2019-03-04T23:31:22.269Z,11.77
2019-03-04T23:36:29.189Z,6.97
2019-03-04T23:41:36.134Z,6.37
2019-03-04T23:46:44.007Z,5.30
2019-03-04T23:51:52.714Z,8.10
2019-03-04T23:56:59.722Z,5.33
